sensor_id;sensor_type;location;lat;lon;timestamp;P1;durP1;ratioP1;P2;durP2;ratioP2
24273;SDS011;12392;42.678;23.380;2022-10-16T00:01:47;14.48;;;6.57;;
24273;SDS011;12392;42.678;23.380;2022-10-16T00:04:13;14.65;;;6.80;;
24273;SDS011;12392;42.678;23.380;2022-10-16T00:06:39;13.35;;;7.00;;
24273;SDS011;12392;42.678;23.380;2022-10-16T00:09:05;19.02;;;9.05;;
24273;SDS011;12392;42.678;23.380;2022-10-16T00:11:32;23.40;;;8.45;;
24273;SDS011;12392;42.678;23.380;2022-10-16T00:14:01;16.77;;;8.13;;
24273;SDS011;12392;42.678;23.380;2022-10-16T00:16:28;17.52;;;7.35;;
24273;SDS011;12392;42.678;23.380;2022-10-16T00:18:54;16.10;;;7.60;;
24273;SDS011;12392;42.678;23.380;2022-10-16T00:21:21;13.27;;;6.40;;
24273;SDS011;12392;42.678;23.380;2022-10-16T00:23:52;9.50;;;5.32;;
24273;SDS011;12392;42.678;23.380;2022-10-16T00:26:19;13.57;;;6.32;;
24273;SDS011;12392;42.678;23.380;2022-10-16T00:28:46;11.32;;;5.93;;
24273;SDS011;12392;42.678;23.380;2022-10-16T00:31:13;9.82;;;5.03;;
24273;SDS011;12392;42.678;23.380;2022-10-16T00:33:39;12.18;;;5.18;;
24273;SDS011;12392;42.678;23.380;2022-10-16T00:36:05;8.23;;;5.38;;
24273;SDS011;12392;42.678;23.380;2022-10-16T00:38:32;8.57;;;5.20;;
24273;SDS011;12392;42.678;23.380;2022-10-16T00:40:58;8.65;;;4.68;;
24273;SDS011;12392;42.678;23.380;2022-10-16T00:46:22;8.55;;;5.00;;
24273;SDS011;12392;42.678;23.380;2022-10-16T00:49:14;11.48;;;6.88;;
24273;SDS011;12392;42.678;23.380;2022-10-16T00:51:42;13.20;;;7.25;;
24273;SDS011;12392;42.678;23.380;2022-10-16T00:54:14;14.70;;;6.88;;
24273;SDS011;12392;42.678;23.380;2022-10-16T00:56:42;11.80;;;6.35;;
24273;SDS011;12392;42.678;23.380;2022-10-16T00:59:19;15.27;;;8.70;;
24273;SDS011;12392;42.678;23.380;2022-10-16T01:02:06;16.38;;;8.43;;
24273;SDS011;12392;42.678;23.380;2022-10-16T01:04:35;11.68;;;7.65;;
24273;SDS011;12392;42.678;23.380;2022-10-16T01:13:24;12.75;;;6.63;;
24273;SDS011;12392;42.678;23.380;2022-10-16T01:16:07;10.45;;;6.18;;
24273;SDS011;12392;42.678;23.380;2022-10-16T01:18:39;12.20;;;6.50;;
24273;SDS011;12392;42.678;23.380;2022-10-16T01:21:20;11.30;;;6.75;;
24273;SDS011;12392;42.678;23.380;2022-10-16T01:23:53;12.90;;;7.30;;
24273;SDS011;12392;42.678;23.380;2022-10-16T01:31:34;14.30;;;6.03;;
24273;SDS011;12392;42.678;23.380;2022-10-16T01:34:02;14.52;;;6.90;;
24273;SDS011;12392;42.678;23.380;2022-10-16T01:36:37;16.50;;;6.88;;
24273;SDS011;12392;42.678;23.380;2022-10-16T01:39:05;12.27;;;6.57;;
24273;SDS011;12392;42.678;23.380;2022-10-16T01:41:32;10.75;;;6.18;;
24273;SDS011;12392;42.678;23.380;2022-10-16T01:44:07;11.60;;;6.00;;
24273;SDS011;12392;42.678;23.380;2022-10-16T01:46:39;8.93;;;5.85;;
24273;SDS011;12392;42.678;23.380;2022-10-16T01:49:06;15.20;;;7.18;;
24273;SDS011;12392;42.678;23.380;2022-10-16T01:51:33;14.65;;;7.28;;
24273;SDS011;12392;42.678;23.380;2022-10-16T01:54:00;16.70;;;8.65;;
24273;SDS011;12392;42.678;23.380;2022-10-16T01:56:26;13.10;;;6.65;;
24273;SDS011;12392;42.678;23.380;2022-10-16T01:58:54;14.98;;;7.30;;
24273;SDS011;12392;42.678;23.380;2022-10-16T02:01:23;11.93;;;6.47;;
24273;SDS011;12392;42.678;23.380;2022-10-16T02:03:51;10.00;;;5.47;;
24273;SDS011;12392;42.678;23.380;2022-10-16T02:06:18;13.65;;;7.07;;
24273;SDS011;12392;42.678;23.380;2022-10-16T02:08:44;13.95;;;6.85;;
24273;SDS011;12392;42.678;23.380;2022-10-16T02:11:10;9.85;;;5.65;;
24273;SDS011;12392;42.678;23.380;2022-10-16T02:13:51;10.52;;;5.95;;
24273;SDS011;12392;42.678;23.380;2022-10-16T02:16:20;7.72;;;4.97;;
24273;SDS011;12392;42.678;23.380;2022-10-16T02:18:46;8.85;;;5.15;;
24273;SDS011;12392;42.678;23.380;2022-10-16T02:21:19;7.55;;;5.28;;
24273;SDS011;12392;42.678;23.380;2022-10-16T02:23:59;9.73;;;5.53;;
24273;SDS011;12392;42.678;23.380;2022-10-16T02:26:38;10.68;;;6.40;;
24273;SDS011;12392;42.678;23.380;2022-10-16T02:29:29;13.38;;;7.13;;
24273;SDS011;12392;42.678;23.380;2022-10-16T02:31:57;11.82;;;6.95;;
24273;SDS011;12392;42.678;23.380;2022-10-16T02:34:25;14.15;;;6.65;;
24273;SDS011;12392;42.678;23.380;2022-10-16T02:36:52;14.00;;;7.22;;
24273;SDS011;12392;42.678;23.380;2022-10-16T02:39:18;14.82;;;6.47;;
24273;SDS011;12392;42.678;23.380;2022-10-16T02:41:45;14.00;;;7.05;;
24273;SDS011;12392;42.678;23.380;2022-10-16T02:44:10;17.33;;;8.70;;
24273;SDS011;12392;42.678;23.380;2022-10-16T02:46:36;15.02;;;8.18;;
24273;SDS011;12392;42.678;23.380;2022-10-16T02:49:02;19.50;;;9.10;;
24273;SDS011;12392;42.678;23.380;2022-10-16T02:51:27;13.43;;;8.02;;
24273;SDS011;12392;42.678;23.380;2022-10-16T02:53:53;13.35;;;6.70;;
24273;SDS011;12392;42.678;23.380;2022-10-16T02:56:19;9.63;;;6.32;;
24273;SDS011;12392;42.678;23.380;2022-10-16T02:58:44;12.38;;;6.75;;
24273;SDS011;12392;42.678;23.380;2022-10-16T03:01:10;9.32;;;5.63;;
24273;SDS011;12392;42.678;23.380;2022-10-16T03:03:37;10.90;;;6.32;;
24273;SDS011;12392;42.678;23.380;2022-10-16T03:06:03;13.02;;;6.93;;
24273;SDS011;12392;42.678;23.380;2022-10-16T03:08:29;9.40;;;5.93;;
24273;SDS011;12392;42.678;23.380;2022-10-16T03:10:55;10.13;;;5.95;;
24273;SDS011;12392;42.678;23.380;2022-10-16T03:13:21;8.68;;;5.60;;
24273;SDS011;12392;42.678;23.380;2022-10-16T03:15:46;9.93;;;6.18;;
24273;SDS011;12392;42.678;23.380;2022-10-16T03:18:12;11.98;;;6.68;;
24273;SDS011;12392;42.678;23.380;2022-10-16T03:20:38;11.15;;;6.38;;
24273;SDS011;12392;42.678;23.380;2022-10-16T03:23:04;12.15;;;6.30;;
24273;SDS011;12392;42.678;23.380;2022-10-16T03:25:29;11.27;;;6.53;;
24273;SDS011;12392;42.678;23.380;2022-10-16T03:27:55;10.82;;;6.20;;
24273;SDS011;12392;42.678;23.380;2022-10-16T03:30:21;10.45;;;6.03;;
24273;SDS011;12392;42.678;23.380;2022-10-16T03:32:46;16.85;;;6.38;;
24273;SDS011;12392;42.678;23.380;2022-10-16T03:35:12;12.25;;;6.65;;
24273;SDS011;12392;42.678;23.380;2022-10-16T03:37:38;11.55;;;6.55;;
24273;SDS011;12392;42.678;23.380;2022-10-16T03:40:04;8.63;;;5.82;;
24273;SDS011;12392;42.678;23.380;2022-10-16T03:42:30;11.98;;;7.18;;
24273;SDS011;12392;42.678;23.380;2022-10-16T03:44:56;15.40;;;6.57;;
24273;SDS011;12392;42.678;23.380;2022-10-16T03:47:22;11.98;;;6.55;;
24273;SDS011;12392;42.678;23.380;2022-10-16T03:49:49;16.55;;;6.38;;
24273;SDS011;12392;42.678;23.380;2022-10-16T03:52:14;12.65;;;6.20;;
24273;SDS011;12392;42.678;23.380;2022-10-16T03:54:40;16.40;;;6.88;;
24273;SDS011;12392;42.678;23.380;2022-10-16T03:57:06;10.88;;;6.95;;
24273;SDS011;12392;42.678;23.380;2022-10-16T03:59:32;10.63;;;5.88;;
24273;SDS011;12392;42.678;23.380;2022-10-16T04:01:58;10.60;;;5.97;;
24273;SDS011;12392;42.678;23.380;2022-10-16T04:04:23;13.32;;;6.65;;
24273;SDS011;12392;42.678;23.380;2022-10-16T04:06:50;10.15;;;6.13;;
24273;SDS011;12392;42.678;23.380;2022-10-16T04:09:16;14.57;;;6.45;;
24273;SDS011;12392;42.678;23.380;2022-10-16T04:11:42;10.77;;;5.97;;
24273;SDS011;12392;42.678;23.380;2022-10-16T04:14:07;8.07;;;5.53;;
24273;SDS011;12392;42.678;23.380;2022-10-16T04:16:33;7.97;;;5.55;;
24273;SDS011;12392;42.678;23.380;2022-10-16T04:18:59;10.55;;;6.32;;
24273;SDS011;12392;42.678;23.380;2022-10-16T04:21:25;12.40;;;6.57;;
24273;SDS011;12392;42.678;23.380;2022-10-16T04:23:50;12.32;;;6.50;;
24273;SDS011;12392;42.678;23.380;2022-10-16T04:26:16;10.43;;;6.18;;
24273;SDS011;12392;42.678;23.380;2022-10-16T04:28:41;11.73;;;6.10;;
24273;SDS011;12392;42.678;23.380;2022-10-16T04:31:08;10.75;;;6.20;;
24273;SDS011;12392;42.678;23.380;2022-10-16T04:33:33;8.82;;;5.80;;
24273;SDS011;12392;42.678;23.380;2022-10-16T04:36:00;11.55;;;4.85;;
24273;SDS011;12392;42.678;23.380;2022-10-16T04:38:26;8.20;;;5.65;;
24273;SDS011;12392;42.678;23.380;2022-10-16T04:40:51;11.02;;;5.63;;
24273;SDS011;12392;42.678;23.380;2022-10-16T04:43:18;10.75;;;6.10;;
24273;SDS011;12392;42.678;23.380;2022-10-16T04:45:43;11.88;;;7.03;;
24273;SDS011;12392;42.678;23.380;2022-10-16T04:48:09;14.77;;;6.47;;
24273;SDS011;12392;42.678;23.380;2022-10-16T04:50:35;13.25;;;6.97;;
24273;SDS011;12392;42.678;23.380;2022-10-16T04:53:00;17.33;;;9.02;;
24273;SDS011;12392;42.678;23.380;2022-10-16T04:55:26;13.98;;;8.60;;
24273;SDS011;12392;42.678;23.380;2022-10-16T04:57:52;20.50;;;9.68;;
24273;SDS011;12392;42.678;23.380;2022-10-16T05:00:18;18.45;;;9.38;;
24273;SDS011;12392;42.678;23.380;2022-10-16T05:02:43;17.67;;;10.15;;
24273;SDS011;12392;42.678;23.380;2022-10-16T05:05:09;20.45;;;12.35;;
24273;SDS011;12392;42.678;23.380;2022-10-16T05:07:35;19.45;;;10.65;;
24273;SDS011;12392;42.678;23.380;2022-10-16T05:10:00;23.67;;;12.25;;
24273;SDS011;12392;42.678;23.380;2022-10-16T05:12:26;19.17;;;11.27;;
24273;SDS011;12392;42.678;23.380;2022-10-16T05:14:52;20.98;;;12.73;;
24273;SDS011;12392;42.678;23.380;2022-10-16T05:17:17;24.95;;;13.45;;
24273;SDS011;12392;42.678;23.380;2022-10-16T05:19:43;21.88;;;11.90;;
24273;SDS011;12392;42.678;23.380;2022-10-16T05:22:09;19.73;;;9.80;;
24273;SDS011;12392;42.678;23.380;2022-10-16T05:24:34;20.45;;;11.52;;
24273;SDS011;12392;42.678;23.380;2022-10-16T05:27:00;26.98;;;15.27;;
24273;SDS011;12392;42.678;23.380;2022-10-16T05:29:26;29.42;;;16.75;;
24273;SDS011;12392;42.678;23.380;2022-10-16T05:31:52;25.33;;;15.20;;
24273;SDS011;12392;42.678;23.380;2022-10-16T05:34:18;33.15;;;16.70;;
24273;SDS011;12392;42.678;23.380;2022-10-16T05:36:44;42.85;;;24.27;;
24273;SDS011;12392;42.678;23.380;2022-10-16T05:39:10;44.28;;;23.25;;
24273;SDS011;12392;42.678;23.380;2022-10-16T05:41:36;42.00;;;23.83;;
24273;SDS011;12392;42.678;23.380;2022-10-16T05:44:05;27.05;;;16.50;;
24273;SDS011;12392;42.678;23.380;2022-10-16T05:46:31;38.67;;;21.35;;
24273;SDS011;12392;42.678;23.380;2022-10-16T05:48:57;26.05;;;14.32;;
24273;SDS011;12392;42.678;23.380;2022-10-16T05:51:23;19.52;;;10.70;;
24273;SDS011;12392;42.678;23.380;2022-10-16T05:53:48;11.00;;;7.38;;
24273;SDS011;12392;42.678;23.380;2022-10-16T05:56:14;13.70;;;8.27;;
24273;SDS011;12392;42.678;23.380;2022-10-16T05:58:40;12.20;;;7.70;;
24273;SDS011;12392;42.678;23.380;2022-10-16T06:01:09;14.40;;;9.52;;
24273;SDS011;12392;42.678;23.380;2022-10-16T06:03:35;9.20;;;6.68;;
24273;SDS011;12392;42.678;23.380;2022-10-16T06:06:11;10.30;;;6.13;;
24273;SDS011;12392;42.678;23.380;2022-10-16T06:08:41;11.23;;;7.07;;
24273;SDS011;12392;42.678;23.380;2022-10-16T06:11:08;10.73;;;7.07;;
24273;SDS011;12392;42.678;23.380;2022-10-16T06:13:36;10.07;;;5.93;;
24273;SDS011;12392;42.678;23.380;2022-10-16T06:16:02;10.05;;;5.47;;
24273;SDS011;12392;42.678;23.380;2022-10-16T06:18:28;10.48;;;5.70;;
24273;SDS011;12392;42.678;23.380;2022-10-16T06:20:54;13.35;;;5.57;;
24273;SDS011;12392;42.678;23.380;2022-10-16T06:23:21;6.63;;;4.85;;
24273;SDS011;12392;42.678;23.380;2022-10-16T06:25:47;7.15;;;5.07;;
24273;SDS011;12392;42.678;23.380;2022-10-16T06:28:13;9.35;;;5.35;;
24273;SDS011;12392;42.678;23.380;2022-10-16T06:30:39;7.15;;;4.97;;
24273;SDS011;12392;42.678;23.380;2022-10-16T06:33:05;9.60;;;5.28;;
24273;SDS011;12392;42.678;23.380;2022-10-16T06:35:31;9.52;;;5.85;;
24273;SDS011;12392;42.678;23.380;2022-10-16T06:37:57;14.75;;;6.32;;
24273;SDS011;12392;42.678;23.380;2022-10-16T06:40:23;11.77;;;6.30;;
24273;SDS011;12392;42.678;23.380;2022-10-16T06:42:49;8.70;;;5.68;;
24273;SDS011;12392;42.678;23.380;2022-10-16T06:45:15;6.95;;;4.93;;
24273;SDS011;12392;42.678;23.380;2022-10-16T06:47:40;6.97;;;4.70;;
24273;SDS011;12392;42.678;23.380;2022-10-16T06:50:06;7.13;;;4.13;;
24273;SDS011;12392;42.678;23.380;2022-10-16T06:52:33;6.50;;;4.43;;
24273;SDS011;12392;42.678;23.380;2022-10-16T06:54:59;6.28;;;4.13;;
24273;SDS011;12392;42.678;23.380;2022-10-16T06:57:25;6.70;;;4.15;;
24273;SDS011;12392;42.678;23.380;2022-10-16T06:59:51;6.43;;;4.57;;
24273;SDS011;12392;42.678;23.380;2022-10-16T07:02:16;4.85;;;3.65;;
24273;SDS011;12392;42.678;23.380;2022-10-16T07:04:42;5.70;;;4.00;;
24273;SDS011;12392;42.678;23.380;2022-10-16T07:07:08;7.28;;;4.45;;
24273;SDS011;12392;42.678;23.380;2022-10-16T07:09:33;5.80;;;3.58;;
24273;SDS011;12392;42.678;23.380;2022-10-16T07:11:59;6.75;;;3.80;;
24273;SDS011;12392;42.678;23.380;2022-10-16T07:14:25;4.60;;;3.83;;
24273;SDS011;12392;42.678;23.380;2022-10-16T07:16:50;7.60;;;4.40;;
24273;SDS011;12392;42.678;23.380;2022-10-16T07:19:16;7.70;;;4.70;;
24273;SDS011;12392;42.678;23.380;2022-10-16T07:21:43;6.40;;;4.25;;
24273;SDS011;12392;42.678;23.380;2022-10-16T07:24:13;5.47;;;4.00;;
24273;SDS011;12392;42.678;23.380;2022-10-16T07:26:41;8.77;;;3.55;;
24273;SDS011;12392;42.678;23.380;2022-10-16T07:29:26;5.20;;;3.28;;
24273;SDS011;12392;42.678;23.380;2022-10-16T07:31:52;5.35;;;3.75;;
24273;SDS011;12392;42.678;23.380;2022-10-16T07:34:18;4.68;;;2.90;;
24273;SDS011;12392;42.678;23.380;2022-10-16T07:36:44;5.07;;;3.15;;
24273;SDS011;12392;42.678;23.380;2022-10-16T07:39:15;6.70;;;3.38;;
24273;SDS011;12392;42.678;23.380;2022-10-16T07:41:41;5.60;;;3.22;;
24273;SDS011;12392;42.678;23.380;2022-10-16T07:44:07;4.60;;;3.30;;
24273;SDS011;12392;42.678;23.380;2022-10-16T07:46:33;4.80;;;3.15;;
24273;SDS011;12392;42.678;23.380;2022-10-16T07:49:01;8.43;;;3.70;;
24273;SDS011;12392;42.678;23.380;2022-10-16T07:51:27;6.25;;;3.10;;
24273;SDS011;12392;42.678;23.380;2022-10-16T07:53:53;5.30;;;3.10;;
24273;SDS011;12392;42.678;23.380;2022-10-16T07:56:19;5.07;;;3.38;;
24273;SDS011;12392;42.678;23.380;2022-10-16T07:58:45;4.20;;;3.30;;
24273;SDS011;12392;42.678;23.380;2022-10-16T08:01:12;6.50;;;3.78;;
24273;SDS011;12392;42.678;23.380;2022-10-16T08:03:46;4.93;;;3.47;;
24273;SDS011;12392;42.678;23.380;2022-10-16T08:06:16;5.85;;;4.30;;
24273;SDS011;12392;42.678;23.380;2022-10-16T08:08:42;5.80;;;3.50;;
24273;SDS011;12392;42.678;23.380;2022-10-16T08:13:59;6.35;;;3.47;;
24273;SDS011;12392;42.678;23.380;2022-10-16T08:16:25;4.05;;;3.30;;
24273;SDS011;12392;42.678;23.380;2022-10-16T08:18:50;7.43;;;3.90;;
24273;SDS011;12392;42.678;23.380;2022-10-16T08:21:17;5.70;;;3.10;;
24273;SDS011;12392;42.678;23.380;2022-10-16T08:23:44;5.65;;;3.65;;
24273;SDS011;12392;42.678;23.380;2022-10-16T08:26:11;8.07;;;3.40;;
24273;SDS011;12392;42.678;23.380;2022-10-16T08:28:37;6.47;;;3.15;;
24273;SDS011;12392;42.678;23.380;2022-10-16T08:31:10;4.88;;;3.50;;
24273;SDS011;12392;42.678;23.380;2022-10-16T08:33:38;3.58;;;2.80;;
24273;SDS011;12392;42.678;23.380;2022-10-16T08:36:04;4.63;;;3.22;;
24273;SDS011;12392;42.678;23.380;2022-10-16T08:38:31;3.63;;;2.65;;
24273;SDS011;12392;42.678;23.380;2022-10-16T08:41:01;4.05;;;2.50;;
24273;SDS011;12392;42.678;23.380;2022-10-16T08:46:34;6.35;;;2.40;;
24273;SDS011;12392;42.678;23.380;2022-10-16T08:49:01;2.47;;;1.95;;
24273;SDS011;12392;42.678;23.380;2022-10-16T08:51:32;3.75;;;2.22;;
24273;SDS011;12392;42.678;23.380;2022-10-16T08:54:06;3.70;;;2.13;;
24273;SDS011;12392;42.678;23.380;2022-10-16T08:56:40;2.17;;;1.98;;
24273;SDS011;12392;42.678;23.380;2022-10-16T08:59:06;2.58;;;1.80;;
24273;SDS011;12392;42.678;23.380;2022-10-16T09:01:40;3.38;;;2.13;;
24273;SDS011;12392;42.678;23.380;2022-10-16T09:15:35;3.45;;;2.40;;
24273;SDS011;12392;42.678;23.380;2022-10-16T09:18:10;1.90;;;1.60;;
24273;SDS011;12392;42.678;23.380;2022-10-16T09:23:45;2.95;;;2.10;;
24273;SDS011;12392;42.678;23.380;2022-10-16T09:26:14;4.20;;;1.92;;
24273;SDS011;12392;42.678;23.380;2022-10-16T09:28:41;3.00;;;2.00;;
24273;SDS011;12392;42.678;23.380;2022-10-16T09:31:12;4.22;;;2.72;;
24273;SDS011;12392;42.678;23.380;2022-10-16T09:33:41;4.45;;;2.10;;
24273;SDS011;12392;42.678;23.380;2022-10-16T09:36:08;2.80;;;2.03;;
24273;SDS011;12392;42.678;23.380;2022-10-16T09:38:35;2.78;;;2.10;;
24273;SDS011;12392;42.678;23.380;2022-10-16T09:41:14;4.10;;;2.28;;
24273;SDS011;12392;42.678;23.380;2022-10-16T09:48:51;2.85;;;1.90;;
24273;SDS011;12392;42.678;23.380;2022-10-16T09:53:47;2.97;;;1.83;;
24273;SDS011;12392;42.678;23.380;2022-10-16T09:56:27;3.28;;;2.13;;
24273;SDS011;12392;42.678;23.380;2022-10-16T09:58:58;2.90;;;1.98;;
24273;SDS011;12392;42.678;23.380;2022-10-16T10:01:35;3.55;;;1.88;;
24273;SDS011;12392;42.678;23.380;2022-10-16T10:04:03;3.47;;;1.88;;
24273;SDS011;12392;42.678;23.380;2022-10-16T10:06:30;1.70;;;1.60;;
24273;SDS011;12392;42.678;23.380;2022-10-16T10:08:59;2.28;;;1.60;;
24273;SDS011;12392;42.678;23.380;2022-10-16T10:11:54;2.17;;;1.45;;
24273;SDS011;12392;42.678;23.380;2022-10-16T10:14:22;3.42;;;2.05;;
24273;SDS011;12392;42.678;23.380;2022-10-16T10:16:49;2.15;;;1.77;;
24273;SDS011;12392;42.678;23.380;2022-10-16T10:19:20;4.10;;;2.17;;
24273;SDS011;12392;42.678;23.380;2022-10-16T10:21:47;2.85;;;1.90;;
24273;SDS011;12392;42.678;23.380;2022-10-16T10:24:15;1.90;;;1.65;;
24273;SDS011;12392;42.678;23.380;2022-10-16T10:26:44;2.78;;;1.88;;
24273;SDS011;12392;42.678;23.380;2022-10-16T10:32:15;2.00;;;1.77;;
24273;SDS011;12392;42.678;23.380;2022-10-16T10:46:04;4.47;;;2.05;;
24273;SDS011;12392;42.678;23.380;2022-10-16T10:51:11;2.10;;;1.73;;
24273;SDS011;12392;42.678;23.380;2022-10-16T11:04:28;1.88;;;1.67;;
24273;SDS011;12392;42.678;23.380;2022-10-16T11:07:01;2.88;;;1.58;;
24273;SDS011;12392;42.678;23.380;2022-10-16T11:09:35;2.42;;;1.52;;
24273;SDS011;12392;42.678;23.380;2022-10-16T11:14:36;4.65;;;2.08;;
24273;SDS011;12392;42.678;23.380;2022-10-16T11:17:16;3.63;;;1.50;;
24273;SDS011;12392;42.678;23.380;2022-10-16T11:22:36;1.73;;;1.42;;
24273;SDS011;12392;42.678;23.380;2022-10-16T11:25:15;2.22;;;1.60;;
24273;SDS011;12392;42.678;23.380;2022-10-16T11:28:01;4.15;;;1.70;;
24273;SDS011;12392;42.678;23.380;2022-10-16T11:39:28;2.70;;;1.58;;
24273;SDS011;12392;42.678;23.380;2022-10-16T11:41:56;3.55;;;1.52;;
24273;SDS011;12392;42.678;23.380;2022-10-16T11:53:03;2.60;;;1.70;;
24273;SDS011;12392;42.678;23.380;2022-10-16T11:55:42;2.35;;;1.50;;
24273;SDS011;12392;42.678;23.380;2022-10-16T11:58:13;1.90;;;1.60;;
24273;SDS011;12392;42.678;23.380;2022-10-16T12:00:51;2.53;;;1.60;;
24273;SDS011;12392;42.678;23.380;2022-10-16T12:08:52;2.97;;;1.58;;
24273;SDS011;12392;42.678;23.380;2022-10-16T12:16:59;1.98;;;1.42;;
24273;SDS011;12392;42.678;23.380;2022-10-16T12:19:25;2.03;;;1.45;;
24273;SDS011;12392;42.678;23.380;2022-10-16T12:21:54;2.20;;;1.17;;
24273;SDS011;12392;42.678;23.380;2022-10-16T12:24:39;1.58;;;1.40;;
24273;SDS011;12392;42.678;23.380;2022-10-16T12:27:19;1.85;;;1.40;;
24273;SDS011;12392;42.678;23.380;2022-10-16T12:29:58;2.53;;;1.70;;
24273;SDS011;12392;42.678;23.380;2022-10-16T12:35:00;2.80;;;1.60;;
24273;SDS011;12392;42.678;23.380;2022-10-16T12:37:28;3.58;;;1.85;;
24273;SDS011;12392;42.678;23.380;2022-10-16T12:39:57;3.25;;;1.92;;
24273;SDS011;12392;42.678;23.380;2022-10-16T12:44:52;2.13;;;1.45;;
24273;SDS011;12392;42.678;23.380;2022-10-16T12:47:38;3.17;;;1.48;;
24273;SDS011;12392;42.678;23.380;2022-10-16T12:53:16;1.67;;;1.58;;
24273;SDS011;12392;42.678;23.380;2022-10-16T12:55:47;3.80;;;1.45;;
24273;SDS011;12392;42.678;23.380;2022-10-16T13:01:18;2.15;;;1.13;;
24273;SDS011;12392;42.678;23.380;2022-10-16T13:04:13;2.28;;;1.50;;
24273;SDS011;12392;42.678;23.380;2022-10-16T13:06:51;1.42;;;1.25;;
24273;SDS011;12392;42.678;23.380;2022-10-16T13:09:36;1.73;;;1.23;;
24273;SDS011;12392;42.678;23.380;2022-10-16T13:20:36;1.85;;;1.40;;
24273;SDS011;12392;42.678;23.380;2022-10-16T13:29:01;2.65;;;1.65;;
24273;SDS011;12392;42.678;23.380;2022-10-16T13:31:27;4.00;;;1.52;;
24273;SDS011;12392;42.678;23.380;2022-10-16T13:33:54;2.33;;;1.40;;
24273;SDS011;12392;42.678;23.380;2022-10-16T13:36:27;2.08;;;1.63;;
24273;SDS011;12392;42.678;23.380;2022-10-16T13:39:06;2.50;;;1.48;;
24273;SDS011;12392;42.678;23.380;2022-10-16T13:41:39;1.90;;;1.08;;
24273;SDS011;12392;42.678;23.380;2022-10-16T13:44:05;1.60;;;1.40;;
24273;SDS011;12392;42.678;23.380;2022-10-16T13:46:38;2.67;;;1.40;;
24273;SDS011;12392;42.678;23.380;2022-10-16T13:49:14;2.05;;;1.30;;
24273;SDS011;12392;42.678;23.380;2022-10-16T13:51:41;2.15;;;1.38;;
24273;SDS011;12392;42.678;23.380;2022-10-16T13:54:09;2.58;;;1.42;;
24273;SDS011;12392;42.678;23.380;2022-10-16T13:56:38;3.97;;;1.75;;
24273;SDS011;12392;42.678;23.380;2022-10-16T13:59:06;2.03;;;1.67;;
24273;SDS011;12392;42.678;23.380;2022-10-16T14:01:46;1.77;;;1.35;;
24273;SDS011;12392;42.678;23.380;2022-10-16T14:04:12;1.38;;;1.10;;
24273;SDS011;12392;42.678;23.380;2022-10-16T14:06:45;2.63;;;1.30;;
24273;SDS011;12392;42.678;23.380;2022-10-16T14:09:20;2.38;;;1.42;;
24273;SDS011;12392;42.678;23.380;2022-10-16T14:11:57;1.58;;;1.27;;
24273;SDS011;12392;42.678;23.380;2022-10-16T14:14:26;0.98;;;0.85;;
24273;SDS011;12392;42.678;23.380;2022-10-16T14:16:54;1.88;;;1.25;;
24273;SDS011;12392;42.678;23.380;2022-10-16T14:19:22;1.90;;;1.27;;
24273;SDS011;12392;42.678;23.380;2022-10-16T14:21:52;1.58;;;1.38;;
24273;SDS011;12392;42.678;23.380;2022-10-16T14:24:31;2.42;;;1.48;;
24273;SDS011;12392;42.678;23.380;2022-10-16T14:26:58;1.40;;;1.30;;
24273;SDS011;12392;42.678;23.380;2022-10-16T14:29:25;1.55;;;1.20;;
24273;SDS011;12392;42.678;23.380;2022-10-16T14:34:33;4.05;;;1.15;;
24273;SDS011;12392;42.678;23.380;2022-10-16T14:37:26;1.98;;;1.20;;
24273;SDS011;12392;42.678;23.380;2022-10-16T14:39:54;2.72;;;1.02;;
24273;SDS011;12392;42.678;23.380;2022-10-16T14:42:21;3.28;;;1.73;;
24273;SDS011;12392;42.678;23.380;2022-10-16T14:44:49;5.43;;;1.10;;
24273;SDS011;12392;42.678;23.380;2022-10-16T14:47:18;1.02;;;0.90;;
24273;SDS011;12392;42.678;23.380;2022-10-16T14:49:51;2.63;;;1.30;;
24273;SDS011;12392;42.678;23.380;2022-10-16T14:52:19;1.55;;;1.15;;
24273;SDS011;12392;42.678;23.380;2022-10-16T14:54:48;3.40;;;2.00;;
24273;SDS011;12392;42.678;23.380;2022-10-16T14:57:22;3.92;;;1.80;;
24273;SDS011;12392;42.678;23.380;2022-10-16T14:59:48;2.45;;;1.40;;
24273;SDS011;12392;42.678;23.380;2022-10-16T15:04:45;2.20;;;1.40;;
24273;SDS011;12392;42.678;23.380;2022-10-16T15:07:11;1.65;;;1.30;;
24273;SDS011;12392;42.678;23.380;2022-10-16T15:09:36;4.30;;;2.15;;
24273;SDS011;12392;42.678;23.380;2022-10-16T15:12:02;1.75;;;1.50;;
24273;SDS011;12392;42.678;23.380;2022-10-16T15:14:28;5.72;;;1.67;;
24273;SDS011;12392;42.678;23.380;2022-10-16T15:16:53;5.72;;;2.10;;
24273;SDS011;12392;42.678;23.380;2022-10-16T15:19:19;3.08;;;1.52;;
24273;SDS011;12392;42.678;23.380;2022-10-16T15:21:45;4.05;;;2.20;;
24273;SDS011;12392;42.678;23.380;2022-10-16T15:24:11;5.45;;;1.92;;
24273;SDS011;12392;42.678;23.380;2022-10-16T15:26:37;4.53;;;1.90;;
24273;SDS011;12392;42.678;23.380;2022-10-16T15:29:03;3.05;;;1.77;;
24273;SDS011;12392;42.678;23.380;2022-10-16T15:31:29;3.25;;;1.67;;
24273;SDS011;12392;42.678;23.380;2022-10-16T15:33:55;3.40;;;1.60;;
24273;SDS011;12392;42.678;23.380;2022-10-16T15:36:30;5.53;;;2.10;;
24273;SDS011;12392;42.678;23.380;2022-10-16T15:38:59;4.88;;;2.55;;
24273;SDS011;12392;42.678;23.380;2022-10-16T15:41:25;3.58;;;1.90;;
24273;SDS011;12392;42.678;23.380;2022-10-16T15:43:51;3.33;;;2.20;;
24273;SDS011;12392;42.678;23.380;2022-10-16T15:46:20;6.15;;;2.15;;
24273;SDS011;12392;42.678;23.380;2022-10-16T15:48:48;4.53;;;2.70;;
24273;SDS011;12392;42.678;23.380;2022-10-16T15:51:14;3.72;;;2.58;;
24273;SDS011;12392;42.678;23.380;2022-10-16T15:53:41;4.72;;;1.77;;
24273;SDS011;12392;42.678;23.380;2022-10-16T15:56:07;5.63;;;2.10;;
24273;SDS011;12392;42.678;23.380;2022-10-16T15:58:34;7.78;;;2.50;;
24273;SDS011;12392;42.678;23.380;2022-10-16T16:01:00;3.75;;;2.28;;
24273;SDS011;12392;42.678;23.380;2022-10-16T16:03:27;7.97;;;3.28;;
24273;SDS011;12392;42.678;23.380;2022-10-16T16:05:53;9.73;;;4.47;;
24273;SDS011;12392;42.678;23.380;2022-10-16T16:08:19;8.60;;;5.63;;
24273;SDS011;12392;42.678;23.380;2022-10-16T16:10:45;13.13;;;7.63;;
24273;SDS011;12392;42.678;23.380;2022-10-16T16:13:21;13.30;;;7.47;;
24273;SDS011;12392;42.678;23.380;2022-10-16T16:15:47;12.20;;;8.18;;
24273;SDS011;12392;42.678;23.380;2022-10-16T16:18:13;13.57;;;8.27;;
24273;SDS011;12392;42.678;23.380;2022-10-16T16:20:38;14.90;;;8.10;;
24273;SDS011;12392;42.678;23.380;2022-10-16T16:23:04;17.98;;;8.27;;
24273;SDS011;12392;42.678;23.380;2022-10-16T16:25:30;13.95;;;8.85;;
24273;SDS011;12392;42.678;23.380;2022-10-16T16:27:55;16.55;;;7.95;;
24273;SDS011;12392;42.678;23.380;2022-10-16T16:30:21;10.38;;;7.07;;
24273;SDS011;12392;42.678;23.380;2022-10-16T16:32:47;12.90;;;6.72;;
24273;SDS011;12392;42.678;23.380;2022-10-16T16:35:12;11.38;;;6.03;;
24273;SDS011;12392;42.678;23.380;2022-10-16T16:37:38;16.80;;;6.25;;
24273;SDS011;12392;42.678;23.380;2022-10-16T16:40:04;16.23;;;7.45;;
24273;SDS011;12392;42.678;23.380;2022-10-16T16:42:30;12.00;;;6.40;;
24273;SDS011;12392;42.678;23.380;2022-10-16T16:44:55;12.05;;;6.60;;
24273;SDS011;12392;42.678;23.380;2022-10-16T16:47:21;17.67;;;7.30;;
24273;SDS011;12392;42.678;23.380;2022-10-16T16:49:47;13.40;;;6.70;;
24273;SDS011;12392;42.678;23.380;2022-10-16T16:52:13;10.32;;;6.57;;